Adamsdale, Pennsylvania
Current Conditions -  °F | °C
As of 12:54 AM on Thursday 29 Jan 2015 (Local Time) from KRDG Reporting Station
Clear Clear  
Wind Chill:   Ceiling: Unl
Heat Index: 14°   Visibility: 10mi
Dew Point:   Wind: 6mph
Humidity: 59%   Direction: 190°S
Pressure: 30.3"   Gusts: NA
Location:  40.6412°N, 76.1672°W
Report Text: KRDG 290554Z 19005KT 10SM CLR M10/M17 A3030 RMK AO2 SLP269 T11001167 11017 21106 50006
Loading
Personal Weather Stations






























Interactive Weather Map New forecast layout! Learn more

10-Day Weather Forecast

Advertisements
Track Severe Weather on mobile